sensor_id;sensor_type;location;lat;lon;timestamp;noise_LAeq;noise_LA_min;noise_LA_max;noise_LA01;noise_LA95
45478;Laerm;31227;47.986;11.868;2023-01-15T00:00:14;38.40;33.90;44.76;;
45478;Laerm;31227;47.986;11.868;2023-01-15T00:02:39;37.61;32.35;40.62;;
45478;Laerm;31227;47.986;11.868;2023-01-15T00:05:05;38.56;33.90;47.23;;
45478;Laerm;31227;47.986;11.868;2023-01-15T00:07:34;37.56;32.35;40.13;;
45478;Laerm;31227;47.986;11.868;2023-01-15T00:09:59;37.53;33.44;40.03;;
45478;Laerm;31227;47.986;11.868;2023-01-15T00:12:25;37.89;34.31;43.29;;
45478;Laerm;31227;47.986;11.868;2023-01-15T00:14:50;38.10;33.55;46.08;;
45478;Laerm;31227;47.986;11.868;2023-01-15T00:17:15;37.54;33.44;40.03;;
45478;Laerm;31227;47.986;11.868;2023-01-15T00:19:41;38.72;33.44;50.33;;
45478;Laerm;31227;47.986;11.868;2023-01-15T00:22:06;38.02;33.90;43.94;;
45478;Laerm;31227;47.986;11.868;2023-01-15T00:24:31;38.11;33.44;47.02;;
45478;Laerm;31227;47.986;11.868;2023-01-15T00:30:30;37.52;32.93;40.33;;
45478;Laerm;31227;47.986;11.868;2023-01-15T00:32:58;38.24;32.35;49.16;;
45478;Laerm;31227;47.986;11.868;2023-01-15T00:35:29;37.75;32.93;44.73;;
45478;Laerm;31227;47.986;11.868;2023-01-15T00:38:15;38.04;33.90;48.78;;
45478;Laerm;31227;47.986;11.868;2023-01-15T00:43:30;37.67;33.44;43.09;;
45478;Laerm;31227;47.986;11.868;2023-01-15T00:46:04;37.94;32.35;45.69;;
45478;Laerm;31227;47.986;11.868;2023-01-15T00:48:30;38.48;33.55;45.14;;
45478;Laerm;31227;47.986;11.868;2023-01-15T00:50:56;37.91;33.44;47.72;;
45478;Laerm;31227;47.986;11.868;2023-01-15T00:53:21;37.82;32.35;43.29;;
45478;Laerm;31227;47.986;11.868;2023-01-15T00:55:46;37.83;33.44;45.33;;
45478;Laerm;31227;47.986;11.868;2023-01-15T00:58:12;38.53;33.44;45.36;;
45478;Laerm;31227;47.986;11.868;2023-01-15T01:00:37;37.75;31.68;43.34;;
45478;Laerm;31227;47.986;11.868;2023-01-15T01:03:02;37.88;32.93;42.88;;
45478;Laerm;31227;47.986;11.868;2023-01-15T01:05:28;37.46;33.44;40.13;;
45478;Laerm;31227;47.986;11.868;2023-01-15T01:07:53;38.33;32.93;47.28;;
45478;Laerm;31227;47.986;11.868;2023-01-15T01:10:18;38.03;32.93;46.15;;
45478;Laerm;31227;47.986;11.868;2023-01-15T01:12:43;37.58;33.44;41.96;;
45478;Laerm;31227;47.986;11.868;2023-01-15T01:15:09;37.77;33.44;44.73;;
45478;Laerm;31227;47.986;11.868;2023-01-15T01:17:38;37.46;32.35;40.33;;
45478;Laerm;31227;47.986;11.868;2023-01-15T01:20:04;37.59;31.68;42.59;;
45478;Laerm;31227;47.986;11.868;2023-01-15T01:22:29;38.13;32.35;46.52;;
45478;Laerm;31227;47.986;11.868;2023-01-15T01:24:57;38.01;33.44;48.51;;
45478;Laerm;31227;47.986;11.868;2023-01-15T01:27:22;37.98;31.68;44.15;;
45478;Laerm;31227;47.986;11.868;2023-01-15T01:29:48;38.58;33.44;46.25;;
45478;Laerm;31227;47.986;11.868;2023-01-15T01:32:13;38.29;32.93;45.57;;
45478;Laerm;31227;47.986;11.868;2023-01-15T01:34:42;38.36;33.44;45.07;;
45478;Laerm;31227;47.986;11.868;2023-01-15T01:37:07;37.81;33.44;46.28;;
45478;Laerm;31227;47.986;11.868;2023-01-15T01:39:33;38.10;33.44;45.60;;
45478;Laerm;31227;47.986;11.868;2023-01-15T01:41:58;37.48;32.93;40.03;;
45478;Laerm;31227;47.986;11.868;2023-01-15T01:46:59;37.66;32.93;43.34;;
45478;Laerm;31227;47.986;11.868;2023-01-15T01:49:28;37.70;32.35;44.69;;
45478;Laerm;31227;47.986;11.868;2023-01-15T01:52:28;38.35;32.93;46.89;;
45478;Laerm;31227;47.986;11.868;2023-01-15T01:54:46;37.42;33.44;40.13;;
45478;Laerm;31227;47.986;11.868;2023-01-15T01:57:13;37.75;32.35;45.39;;
45478;Laerm;31227;47.986;11.868;2023-01-15T01:59:46;37.36;32.35;40.33;;
45478;Laerm;31227;47.986;11.868;2023-01-15T02:02:12;37.84;33.44;46.20;;
45478;Laerm;31227;47.986;11.868;2023-01-15T02:04:38;37.97;32.35;49.39;;
45478;Laerm;31227;47.986;11.868;2023-01-15T02:07:10;37.33;32.35;40.13;;
45478;Laerm;31227;47.986;11.868;2023-01-15T02:09:35;37.32;32.93;40.03;;
45478;Laerm;31227;47.986;11.868;2023-01-15T02:12:07;37.81;32.93;45.77;;
45478;Laerm;31227;47.986;11.868;2023-01-15T02:14:38;37.52;31.68;42.88;;
45478;Laerm;31227;47.986;11.868;2023-01-15T02:17:17;37.68;32.93;46.01;;
45478;Laerm;31227;47.986;11.868;2023-01-15T02:19:50;37.53;32.93;41.89;;
45478;Laerm;31227;47.986;11.868;2023-01-15T02:27:30;37.75;32.93;44.15;;
45478;Laerm;31227;47.986;11.868;2023-01-15T02:30:05;37.58;32.35;40.53;;
45478;Laerm;31227;47.986;11.868;2023-01-15T02:35:28;37.86;33.44;46.80;;
45478;Laerm;31227;47.986;11.868;2023-01-15T02:37:53;37.65;32.93;44.23;;
45478;Laerm;31227;47.986;11.868;2023-01-15T02:40:22;38.04;32.35;44.39;;
45478;Laerm;31227;47.986;11.868;2023-01-15T02:42:48;37.86;33.44;44.97;;
45478;Laerm;31227;47.986;11.868;2023-01-15T02:45:19;37.51;32.93;40.53;;
45478;Laerm;31227;47.986;11.868;2023-01-15T02:47:48;38.18;32.93;46.25;;
45478;Laerm;31227;47.986;11.868;2023-01-15T02:50:20;38.14;33.90;59.88;;
45478;Laerm;31227;47.986;11.868;2023-01-15T02:52:48;37.66;32.93;43.09;;
45478;Laerm;31227;47.986;11.868;2023-01-15T02:55:23;38.00;32.93;46.30;;
45478;Laerm;31227;47.986;11.868;2023-01-15T02:57:58;37.53;32.35;40.23;;
45478;Laerm;31227;47.986;11.868;2023-01-15T03:00:28;38.94;34.31;45.11;;
45478;Laerm;31227;47.986;11.868;2023-01-15T03:03:05;38.39;32.93;49.18;;
45478;Laerm;31227;47.986;11.868;2023-01-15T03:05:42;37.83;32.93;41.06;;
45478;Laerm;31227;47.986;11.868;2023-01-15T03:08:41;37.85;33.90;40.98;;
45478;Laerm;31227;47.986;11.868;2023-01-15T03:11:10;38.01;33.44;42.98;;
45478;Laerm;31227;47.986;11.868;2023-01-15T03:14:00;37.80;33.90;40.80;;
45478;Laerm;31227;47.986;11.868;2023-01-15T03:19:26;37.81;32.93;40.43;;
45478;Laerm;31227;47.986;11.868;2023-01-15T03:21:59;38.47;33.44;45.94;;
45478;Laerm;31227;47.986;11.868;2023-01-15T03:24:37;37.98;33.44;42.03;;
45478;Laerm;31227;47.986;11.868;2023-01-15T03:27:04;38.45;33.44;49.27;;
45478;Laerm;31227;47.986;11.868;2023-01-15T03:29:33;38.71;33.44;47.79;;
45478;Laerm;31227;47.986;11.868;2023-01-15T03:32:01;38.09;33.90;43.49;;
45478;Laerm;31227;47.986;11.868;2023-01-15T03:34:40;37.95;32.35;46.10;;
45478;Laerm;31227;47.986;11.868;2023-01-15T03:37:16;37.82;33.09;43.44;;
45478;Laerm;31227;47.986;11.868;2023-01-15T03:39:44;37.82;33.44;40.71;;
45478;Laerm;31227;47.986;11.868;2023-01-15T03:42:17;37.76;32.93;40.63;;
45478;Laerm;31227;47.986;11.868;2023-01-15T03:56:44;38.01;33.44;44.19;;
45478;Laerm;31227;47.986;11.868;2023-01-15T03:59:26;38.07;33.44;46.55;;
45478;Laerm;31227;47.986;11.868;2023-01-15T04:01:56;37.81;33.44;41.22;;
45478;Laerm;31227;47.986;11.868;2023-01-15T04:04:22;37.94;32.93;45.99;;
45478;Laerm;31227;47.986;11.868;2023-01-15T04:06:52;37.35;32.93;40.33;;
45478;Laerm;31227;47.986;11.868;2023-01-15T04:09:18;37.38;32.35;40.23;;
45478;Laerm;31227;47.986;11.868;2023-01-15T04:11:44;37.59;32.58;45.57;;
45478;Laerm;31227;47.986;11.868;2023-01-15T04:14:11;37.39;32.93;40.03;;
45478;Laerm;31227;47.986;11.868;2023-01-15T04:16:37;37.75;32.35;43.34;;
45478;Laerm;31227;47.986;11.868;2023-01-15T04:19:03;37.39;32.93;40.43;;
45478;Laerm;31227;47.986;11.868;2023-01-15T04:21:28;37.81;32.35;43.90;;
45478;Laerm;31227;47.986;11.868;2023-01-15T04:23:54;37.46;33.09;40.33;;
45478;Laerm;31227;47.986;11.868;2023-01-15T04:26:19;37.40;32.58;40.71;;
45478;Laerm;31227;47.986;11.868;2023-01-15T04:28:45;37.38;31.68;40.23;;
45478;Laerm;31227;47.986;11.868;2023-01-15T04:31:10;37.67;32.35;44.15;;
45478;Laerm;31227;47.986;11.868;2023-01-15T04:33:35;37.41;32.93;40.33;;
45478;Laerm;31227;47.986;11.868;2023-01-15T04:36:02;37.67;33.44;43.51;;
45478;Laerm;31227;47.986;11.868;2023-01-15T04:38:27;38.04;31.68;44.47;;
45478;Laerm;31227;47.986;11.868;2023-01-15T04:40:53;37.55;32.93;41.46;;
45478;Laerm;31227;47.986;11.868;2023-01-15T04:43:37;38.00;32.35;46.13;;
45478;Laerm;31227;47.986;11.868;2023-01-15T04:46:22;37.64;31.68;44.07;;
45478;Laerm;31227;47.986;11.868;2023-01-15T04:48:48;37.40;32.35;40.23;;
45478;Laerm;31227;47.986;11.868;2023-01-15T04:51:14;37.35;32.93;40.03;;
45478;Laerm;31227;47.986;11.868;2023-01-15T04:53:42;37.66;32.93;44.90;;
45478;Laerm;31227;47.986;11.868;2023-01-15T04:56:10;37.33;32.93;40.53;;
45478;Laerm;31227;47.986;11.868;2023-01-15T04:58:38;37.33;30.89;40.53;;
45478;Laerm;31227;47.986;11.868;2023-01-15T05:01:09;38.02;33.44;45.51;;
45478;Laerm;31227;47.986;11.868;2023-01-15T05:06:41;37.72;30.89;44.11;;
45478;Laerm;31227;47.986;11.868;2023-01-15T05:09:13;37.39;32.35;39.92;;
45478;Laerm;31227;47.986;11.868;2023-01-15T05:11:38;37.89;33.09;43.49;;
45478;Laerm;31227;47.986;11.868;2023-01-15T05:14:13;37.66;32.35;45.20;;
45478;Laerm;31227;47.986;11.868;2023-01-15T05:16:39;37.72;32.35;42.82;;
45478;Laerm;31227;47.986;11.868;2023-01-15T05:19:25;37.38;33.55;40.89;;
45478;Laerm;31227;47.986;11.868;2023-01-15T05:21:50;38.32;32.35;45.54;;
45478;Laerm;31227;47.986;11.868;2023-01-15T05:24:19;38.92;32.93;46.89;;
45478;Laerm;31227;47.986;11.868;2023-01-15T05:26:44;37.85;33.44;43.86;;
45478;Laerm;31227;47.986;11.868;2023-01-15T05:29:09;38.77;33.90;50.20;;
45478;Laerm;31227;47.986;11.868;2023-01-15T05:31:35;39.27;32.93;45.43;;
45478;Laerm;31227;47.986;11.868;2023-01-15T05:34:00;39.46;33.90;48.73;;
45478;Laerm;31227;47.986;11.868;2023-01-15T05:36:28;38.58;31.68;46.89;;
45478;Laerm;31227;47.986;11.868;2023-01-15T05:38:54;38.96;32.35;46.89;;
45478;Laerm;31227;47.986;11.868;2023-01-15T05:41:21;38.18;30.89;48.15;;
45478;Laerm;31227;47.986;11.868;2023-01-15T05:44:06;38.11;32.35;45.14;;
45478;Laerm;31227;47.986;11.868;2023-01-15T05:46:36;37.64;33.44;43.34;;
45478;Laerm;31227;47.986;11.868;2023-01-15T05:49:08;38.95;32.93;45.60;;
45478;Laerm;31227;47.986;11.868;2023-01-15T05:51:37;37.62;31.68;43.34;;
45478;Laerm;31227;47.986;11.868;2023-01-15T05:54:03;38.21;32.35;47.34;;
45478;Laerm;31227;47.986;11.868;2023-01-15T05:56:50;38.09;32.93;44.58;;
45478;Laerm;31227;47.986;11.868;2023-01-15T05:59:19;38.27;33.44;46.07;;
45478;Laerm;31227;47.986;11.868;2023-01-15T06:01:45;37.58;31.68;41.82;;
45478;Laerm;31227;47.986;11.868;2023-01-15T06:04:16;37.87;30.54;43.63;;
45478;Laerm;31227;47.986;11.868;2023-01-15T06:06:45;37.70;32.93;44.97;;
45478;Laerm;31227;47.986;11.868;2023-01-15T06:09:11;38.28;31.68;43.86;;
45478;Laerm;31227;47.986;11.868;2023-01-15T06:11:36;37.99;32.93;45.36;;
45478;Laerm;31227;47.986;11.868;2023-01-15T06:14:01;37.99;32.35;44.65;;
45478;Laerm;31227;47.986;11.868;2023-01-15T06:16:27;38.18;32.35;43.58;;
45478;Laerm;31227;47.986;11.868;2023-01-15T06:18:52;37.62;33.44;43.49;;
45478;Laerm;31227;47.986;11.868;2023-01-15T06:21:19;37.89;32.93;43.99;;
45478;Laerm;31227;47.986;11.868;2023-01-15T06:23:44;37.66;32.93;44.23;;
45478;Laerm;31227;47.986;11.868;2023-01-15T06:26:14;37.56;32.93;42.88;;
45478;Laerm;31227;47.986;11.868;2023-01-15T06:28:40;39.34;32.35;46.23;;
45478;Laerm;31227;47.986;11.868;2023-01-15T06:31:06;38.20;32.93;45.23;;
45478;Laerm;31227;47.986;11.868;2023-01-15T06:33:31;38.55;32.93;45.88;;
45478;Laerm;31227;47.986;11.868;2023-01-15T06:35:57;38.46;33.44;44.43;;
45478;Laerm;31227;47.986;11.868;2023-01-15T06:38:22;38.95;33.44;47.98;;
45478;Laerm;31227;47.986;11.868;2023-01-15T06:40:47;39.44;32.35;48.42;;
45478;Laerm;31227;47.986;11.868;2023-01-15T06:43:13;38.82;32.35;47.90;;
45478;Laerm;31227;47.986;11.868;2023-01-15T06:45:57;38.31;33.44;46.33;;
45478;Laerm;31227;47.986;11.868;2023-01-15T06:48:41;39.10;32.93;45.39;;
45478;Laerm;31227;47.986;11.868;2023-01-15T06:51:15;38.29;32.93;45.77;;
45478;Laerm;31227;47.986;11.868;2023-01-15T06:53:47;38.51;32.93;46.23;;
45478;Laerm;31227;47.986;11.868;2023-01-15T06:56:15;39.96;33.44;49.73;;
45478;Laerm;31227;47.986;11.868;2023-01-15T06:58:43;38.79;32.93;46.13;;
45478;Laerm;31227;47.986;11.868;2023-01-15T07:01:09;38.94;32.93;48.31;;
45478;Laerm;31227;47.986;11.868;2023-01-15T07:03:38;39.45;32.93;48.21;;
45478;Laerm;31227;47.986;11.868;2023-01-15T07:08:41;38.51;32.35;44.97;;
45478;Laerm;31227;47.986;11.868;2023-01-15T07:11:07;38.34;32.35;44.39;;
45478;Laerm;31227;47.986;11.868;2023-01-15T07:13:33;38.74;32.93;44.69;;
45478;Laerm;31227;47.986;11.868;2023-01-15T07:15:59;38.37;32.93;47.68;;
45478;Laerm;31227;47.986;11.868;2023-01-15T07:18:25;38.65;32.35;45.75;;
45478;Laerm;31227;47.986;11.868;2023-01-15T07:20:55;38.74;32.93;47.72;;
45478;Laerm;31227;47.986;11.868;2023-01-15T07:23:21;39.34;32.93;46.33;;
45478;Laerm;31227;47.986;11.868;2023-01-15T07:25:46;37.63;29.92;45.07;;
45478;Laerm;31227;47.986;11.868;2023-01-15T07:28:12;39.73;32.93;46.62;;
45478;Laerm;31227;47.986;11.868;2023-01-15T07:30:37;40.00;32.93;47.40;;
45478;Laerm;31227;47.986;11.868;2023-01-15T07:33:10;39.09;31.68;46.45;;
45478;Laerm;31227;47.986;11.868;2023-01-15T07:35:50;39.45;33.44;46.15;;
45478;Laerm;31227;47.986;11.868;2023-01-15T07:38:28;39.55;33.44;46.84;;
45478;Laerm;31227;47.986;11.868;2023-01-15T07:41:02;38.99;30.89;47.08;;
45478;Laerm;31227;47.986;11.868;2023-01-15T07:43:49;38.94;33.44;45.99;;
45478;Laerm;31227;47.986;11.868;2023-01-15T07:46:33;39.90;32.35;47.34;;
45478;Laerm;31227;47.986;11.868;2023-01-15T07:49:17;38.56;32.93;46.38;;
45478;Laerm;31227;47.986;11.868;2023-01-15T07:52:01;40.66;32.35;51.12;;
45478;Laerm;31227;47.986;11.868;2023-01-15T07:54:29;39.30;32.35;45.40;;
45478;Laerm;31227;47.986;11.868;2023-01-15T07:57:03;40.07;33.44;47.86;;
45478;Laerm;31227;47.986;11.868;2023-01-15T08:02:54;38.63;28.67;46.64;;
45478;Laerm;31227;47.986;11.868;2023-01-15T08:05:42;39.14;33.44;46.25;;
45478;Laerm;31227;47.986;11.868;2023-01-15T08:08:17;39.10;33.44;45.01;;
45478;Laerm;31227;47.986;11.868;2023-01-15T08:10:43;39.15;31.68;47.40;;
45478;Laerm;31227;47.986;11.868;2023-01-15T08:13:26;39.54;33.44;45.45;;
45478;Laerm;31227;47.986;11.868;2023-01-15T08:16:10;39.45;32.35;46.76;;
45478;Laerm;31227;47.986;11.868;2023-01-15T08:18:36;39.81;34.31;47.14;;
45478;Laerm;31227;47.986;11.868;2023-01-15T08:21:01;38.55;32.93;45.45;;
45478;Laerm;31227;47.986;11.868;2023-01-15T08:23:27;39.96;32.58;46.20;;
45478;Laerm;31227;47.986;11.868;2023-01-15T08:25:52;39.70;32.93;47.02;;
45478;Laerm;31227;47.986;11.868;2023-01-15T08:28:19;40.07;34.31;45.99;;
45478;Laerm;31227;47.986;11.868;2023-01-15T08:30:44;39.81;33.90;45.39;;
45478;Laerm;31227;47.986;11.868;2023-01-15T08:33:09;38.94;32.93;44.47;;
45478;Laerm;31227;47.986;11.868;2023-01-15T08:35:34;40.09;33.44;45.80;;
45478;Laerm;31227;47.986;11.868;2023-01-15T08:38:03;39.94;34.31;46.35;;
45478;Laerm;31227;47.986;11.868;2023-01-15T08:40:29;39.26;33.90;45.91;;
45478;Laerm;31227;47.986;11.868;2023-01-15T08:42:55;39.65;33.90;45.07;;
45478;Laerm;31227;47.986;11.868;2023-01-15T08:45:20;40.68;34.69;47.67;;
45478;Laerm;31227;47.986;11.868;2023-01-15T08:47:45;40.99;36.20;50.05;;
45478;Laerm;31227;47.986;11.868;2023-01-15T08:50:10;41.25;35.04;47.00;;
45478;Laerm;31227;47.986;11.868;2023-01-15T08:52:56;40.46;34.31;47.68;;
45478;Laerm;31227;47.986;11.868;2023-01-15T08:55:24;40.92;35.36;46.55;;
45478;Laerm;31227;47.986;11.868;2023-01-15T08:57:49;41.59;37.12;47.70;;
45478;Laerm;31227;47.986;11.868;2023-01-15T09:00:15;39.94;34.69;46.30;;
45478;Laerm;31227;47.986;11.868;2023-01-15T09:02:41;40.04;34.69;45.83;;
45478;Laerm;31227;47.986;11.868;2023-01-15T09:05:06;40.57;34.69;46.73;;
45478;Laerm;31227;47.986;11.868;2023-01-15T09:07:31;40.38;35.31;47.24;;
45478;Laerm;31227;47.986;11.868;2023-01-15T09:09:59;39.64;34.31;46.45;;
45478;Laerm;31227;47.986;11.868;2023-01-15T09:12:24;41.14;35.36;52.27;;
45478;Laerm;31227;47.986;11.868;2023-01-15T09:14:51;41.01;35.04;48.55;;
45478;Laerm;31227;47.986;11.868;2023-01-15T09:17:16;39.60;34.69;46.15;;
45478;Laerm;31227;47.986;11.868;2023-01-15T09:19:41;41.54;35.04;52.52;;
45478;Laerm;31227;47.986;11.868;2023-01-15T09:22:07;41.11;34.69;51.95;;
45478;Laerm;31227;47.986;11.868;2023-01-15T09:24:32;41.12;34.31;45.93;;
45478;Laerm;31227;47.986;11.868;2023-01-15T09:26:57;39.98;34.69;46.02;;
45478;Laerm;31227;47.986;11.868;2023-01-15T09:29:22;40.20;35.04;56.15;;
45478;Laerm;31227;47.986;11.868;2023-01-15T09:31:47;40.98;35.36;45.75;;
45478;Laerm;31227;47.986;11.868;2023-01-15T09:34:13;39.89;34.31;45.83;;
45478;Laerm;31227;47.986;11.868;2023-01-15T09:36:38;40.56;33.90;48.07;;
45478;Laerm;31227;47.986;11.868;2023-01-15T09:39:03;39.98;33.90;46.30;;
45478;Laerm;31227;47.986;11.868;2023-01-15T09:52:11;40.59;35.66;46.97;;
45478;Laerm;31227;47.986;11.868;2023-01-15T09:54:44;40.82;35.04;48.71;;
45478;Laerm;31227;47.986;11.868;2023-01-15T09:57:13;40.64;34.69;46.76;;
45478;Laerm;31227;47.986;11.868;2023-01-15T09:59:41;40.17;34.31;47.59;;
45478;Laerm;31227;47.986;11.868;2023-01-15T10:02:42;40.39;35.04;46.95;;
45478;Laerm;31227;47.986;11.868;2023-01-15T10:05:04;40.36;34.31;46.59;;
45478;Laerm;31227;47.986;11.868;2023-01-15T10:07:42;40.65;33.44;51.26;;
45478;Laerm;31227;47.986;11.868;2023-01-15T10:10:10;40.44;35.04;55.14;;
45478;Laerm;31227;47.986;11.868;2023-01-15T10:12:37;39.86;34.69;47.14;;
45478;Laerm;31227;47.986;11.868;2023-01-15T10:17:42;41.45;35.66;59.62;;
45478;Laerm;31227;47.986;11.868;2023-01-15T10:20:54;41.50;35.36;63.77;;
45478;Laerm;31227;47.986;11.868;2023-01-15T10:25:20;42.74;35.66;64.25;;
45478;Laerm;31227;47.986;11.868;2023-01-15T10:27:49;42.15;35.94;63.34;;
45478;Laerm;31227;47.986;11.868;2023-01-15T10:30:16;41.62;35.94;54.86;;
45478;Laerm;31227;47.986;11.868;2023-01-15T10:32:46;43.91;35.66;69.54;;
45478;Laerm;31227;47.986;11.868;2023-01-15T10:35:23;43.26;35.94;62.63;;
45478;Laerm;31227;47.986;11.868;2023-01-15T10:38:00;41.03;35.66;53.81;;
45478;Laerm;31227;47.986;11.868;2023-01-15T10:40:36;46.66;35.94;71.52;;
45478;Laerm;31227;47.986;11.868;2023-01-15T10:43:22;48.07;36.45;67.96;;
45478;Laerm;31227;47.986;11.868;2023-01-15T10:45:53;49.95;37.12;71.85;;
45478;Laerm;31227;47.986;11.868;2023-01-15T10:48:24;44.49;35.66;68.13;;
45478;Laerm;31227;47.986;11.868;2023-01-15T10:50:52;45.51;36.56;67.94;;
45478;Laerm;31227;47.986;11.868;2023-01-15T10:53:33;50.11;36.69;72.88;;
45478;Laerm;31227;47.986;11.868;2023-01-15T10:56:20;46.35;36.69;68.83;;
45478;Laerm;31227;47.986;11.868;2023-01-15T10:58:49;50.88;36.69;76.77;;
45478;Laerm;31227;47.986;11.868;2023-01-15T11:01:17;42.96;35.36;63.16;;
45478;Laerm;31227;47.986;11.868;2023-01-15T11:03:48;43.30;35.36;63.65;;
45478;Laerm;31227;47.986;11.868;2023-01-15T11:06:20;43.63;36.20;62.98;;
45478;Laerm;31227;47.986;11.868;2023-01-15T11:08:48;41.88;35.66;53.53;;
45478;Laerm;31227;47.986;11.868;2023-01-15T11:14:14;43.23;35.36;64.58;;
45478;Laerm;31227;47.986;11.868;2023-01-15T11:16:57;42.90;35.66;60.75;;
45478;Laerm;31227;47.986;11.868;2023-01-15T11:19:38;40.89;35.04;56.71;;
45478;Laerm;31227;47.986;11.868;2023-01-15T11:25:00;46.47;35.66;70.97;;
45478;Laerm;31227;47.986;11.868;2023-01-15T11:30:57;41.41;35.04;51.18;;
45478;Laerm;31227;47.986;11.868;2023-01-15T11:43:22;42.91;35.36;63.08;;
45478;Laerm;31227;47.986;11.868;2023-01-15T11:46:22;43.99;35.94;62.42;;
45478;Laerm;31227;47.986;11.868;2023-01-15T11:49:10;41.87;35.04;62.44;;
45478;Laerm;31227;47.986;11.868;2023-01-15T11:51:57;41.78;35.04;59.99;;
45478;Laerm;31227;47.986;11.868;2023-01-15T11:54:23;43.48;34.31;61.92;;
45478;Laerm;31227;47.986;11.868;2023-01-15T11:56:49;42.82;35.36;51.96;;
45478;Laerm;31227;47.986;11.868;2023-01-15T11:59:15;43.93;35.66;64.05;;
45478;Laerm;31227;47.986;11.868;2023-01-15T12:01:53;42.68;35.04;59.26;;
45478;Laerm;31227;47.986;11.868;2023-01-15T12:07:40;41.70;35.04;55.78;;
45478;Laerm;31227;47.986;11.868;2023-01-15T12:13:27;42.56;33.90;56.92;;
45478;Laerm;31227;47.986;11.868;2023-01-15T12:26:29;44.08;34.69;53.44;;
45478;Laerm;31227;47.986;11.868;2023-01-15T12:31:41;43.31;34.69;52.00;;
45478;Laerm;31227;47.986;11.868;2023-01-15T12:34:16;43.19;35.04;52.94;;
45478;Laerm;31227;47.986;11.868;2023-01-15T12:37:06;42.51;34.69;50.54;;
45478;Laerm;31227;47.986;11.868;2023-01-15T12:40:03;42.62;33.90;51.09;;
45478;Laerm;31227;47.986;11.868;2023-01-15T12:42:26;43.42;34.31;60.16;;
45478;Laerm;31227;47.986;11.868;2023-01-15T12:45:24;43.40;35.36;56.47;;
45478;Laerm;31227;47.986;11.868;2023-01-15T12:47:59;43.43;34.69;64.55;;
45478;Laerm;31227;47.986;11.868;2023-01-15T12:50:34;41.28;33.90;56.55;;
45478;Laerm;31227;47.986;11.868;2023-01-15T12:55:49;43.17;35.04;51.92;;
45478;Laerm;31227;47.986;11.868;2023-01-15T12:58:39;42.16;34.31;49.89;;
45478;Laerm;31227;47.986;11.868;2023-01-15T13:03:57;42.42;34.69;50.72;;
45478;Laerm;31227;47.986;11.868;2023-01-15T13:06:24;42.72;34.31;49.53;;
45478;Laerm;31227;47.986;11.868;2023-01-15T13:11:56;43.07;35.59;51.29;;
45478;Laerm;31227;47.986;11.868;2023-01-15T13:14:24;41.17;34.31;50.26;;
45478;Laerm;31227;47.986;11.868;2023-01-15T13:17:01;43.36;34.69;49.98;;
45478;Laerm;31227;47.986;11.868;2023-01-15T13:22:11;42.67;34.31;50.88;;
45478;Laerm;31227;47.986;11.868;2023-01-15T13:30:40;42.56;33.90;51.54;;
45478;Laerm;31227;47.986;11.868;2023-01-15T13:33:56;42.10;33.90;50.82;;
45478;Laerm;31227;47.986;11.868;2023-01-15T13:36:28;42.75;34.69;51.80;;
45478;Laerm;31227;47.986;11.868;2023-01-15T13:38:56;43.19;34.31;53.86;;
45478;Laerm;31227;47.986;11.868;2023-01-15T13:41:25;47.97;36.45;69.06;;
45478;Laerm;31227;47.986;11.868;2023-01-15T13:44:23;42.02;33.90;55.83;;
45478;Laerm;31227;47.986;11.868;2023-01-15T13:47:10;42.26;34.69;49.78;;
45478;Laerm;31227;47.986;11.868;2023-01-15T13:49:43;42.91;34.31;50.80;;
45478;Laerm;31227;47.986;11.868;2023-01-15T13:52:21;43.44;31.68;51.29;;
45478;Laerm;31227;47.986;11.868;2023-01-15T13:54:47;42.54;35.59;51.51;;
45478;Laerm;31227;47.986;11.868;2023-01-15T13:57:21;43.53;34.69;52.71;;
45478;Laerm;31227;47.986;11.868;2023-01-15T13:59:50;41.73;34.69;49.79;;
45478;Laerm;31227;47.986;11.868;2023-01-15T14:04:50;41.68;34.31;62.08;;
45478;Laerm;31227;47.986;11.868;2023-01-15T14:07:35;42.53;35.04;50.78;;
45478;Laerm;31227;47.986;11.868;2023-01-15T14:10:21;42.76;33.90;51.76;;
45478;Laerm;31227;47.986;11.868;2023-01-15T14:15:20;42.55;34.69;59.69;;
45478;Laerm;31227;47.986;11.868;2023-01-15T14:20:42;42.36;34.69;51.33;;
45478;Laerm;31227;47.986;11.868;2023-01-15T14:23:31;42.73;32.35;49.38;;
45478;Laerm;31227;47.986;11.868;2023-01-15T14:28:50;43.06;34.31;54.15;;
45478;Laerm;31227;47.986;11.868;2023-01-15T14:31:35;41.96;34.69;58.23;;
45478;Laerm;31227;47.986;11.868;2023-01-15T14:34:16;41.49;35.01;51.14;;
45478;Laerm;31227;47.986;11.868;2023-01-15T14:36:49;40.89;33.90;54.35;;
45478;Laerm;31227;47.986;11.868;2023-01-15T14:39:23;41.48;34.31;53.85;;
45478;Laerm;31227;47.986;11.868;2023-01-15T14:41:54;42.76;34.69;50.98;;
45478;Laerm;31227;47.986;11.868;2023-01-15T14:44:39;41.52;34.31;56.10;;
45478;Laerm;31227;47.986;11.868;2023-01-15T14:47:20;41.54;33.90;57.91;;
45478;Laerm;31227;47.986;11.868;2023-01-15T14:52:35;41.48;32.93;59.78;;
45478;Laerm;31227;47.986;11.868;2023-01-15T14:55:11;42.64;34.69;56.11;;
45478;Laerm;31227;47.986;11.868;2023-01-15T15:00:23;42.01;34.69;49.20;;
45478;Laerm;31227;47.986;11.868;2023-01-15T15:03:17;41.55;33.90;49.08;;
45478;Laerm;31227;47.986;11.868;2023-01-15T15:05:43;42.21;33.90;51.32;;
45478;Laerm;31227;47.986;11.868;2023-01-15T15:08:15;43.54;35.66;53.50;;
45478;Laerm;31227;47.986;11.868;2023-01-15T15:11:02;42.26;34.31;49.77;;
45478;Laerm;31227;47.986;11.868;2023-01-15T15:13:49;41.53;32.58;49.64;;
45478;Laerm;31227;47.986;11.868;2023-01-15T15:16:25;43.67;34.69;51.26;;
45478;Laerm;31227;47.986;11.868;2023-01-15T15:19:13;41.32;33.44;49.73;;
45478;Laerm;31227;47.986;11.868;2023-01-15T15:21:49;42.39;34.69;50.98;;
45478;Laerm;31227;47.986;11.868;2023-01-15T15:24:19;42.53;33.90;51.86;;
45478;Laerm;31227;47.986;11.868;2023-01-15T15:26:45;42.39;34.69;49.46;;
45478;Laerm;31227;47.986;11.868;2023-01-15T15:29:11;42.25;33.44;51.83;;
45478;Laerm;31227;47.986;11.868;2023-01-15T15:34:16;41.98;35.36;51.95;;
45478;Laerm;31227;47.986;11.868;2023-01-15T15:36:44;43.42;35.04;52.94;;
45478;Laerm;31227;47.986;11.868;2023-01-15T15:39:19;41.54;32.93;53.97;;
45478;Laerm;31227;47.986;11.868;2023-01-15T15:41:53;41.53;33.90;49.12;;
45478;Laerm;31227;47.986;11.868;2023-01-15T15:44:52;41.89;33.44;49.41;;
45478;Laerm;31227;47.986;11.868;2023-01-15T15:47:38;41.84;33.44;51.53;;
45478;Laerm;31227;47.986;11.868;2023-01-15T15:50:30;42.06;33.97;50.06;;
45478;Laerm;31227;47.986;11.868;2023-01-15T15:52:58;42.50;35.66;48.23;;
45478;Laerm;31227;47.986;11.868;2023-01-15T15:55:39;42.42;34.31;49.80;;
45478;Laerm;31227;47.986;11.868;2023-01-15T15:58:05;40.59;34.31;47.98;;
45478;Laerm;31227;47.986;11.868;2023-01-15T16:00:55;42.30;32.35;49.51;;
45478;Laerm;31227;47.986;11.868;2023-01-15T16:03:47;42.72;36.20;50.12;;
45478;Laerm;31227;47.986;11.868;2023-01-15T16:06:32;41.12;33.90;48.76;;